createdAt,value
2023-02-28T00:01:03.864Z,45.79
2023-02-28T00:04:06.701Z,45.82
2023-02-28T00:07:09.580Z,46.13
2023-02-28T00:10:16.149Z,46.47
2023-02-28T00:13:18.929Z,46.77
2023-02-28T00:16:23.554Z,46.59
2023-02-28T00:19:26.833Z,46.61
2023-02-28T00:22:29.690Z,47.35
2023-02-28T00:25:32.510Z,46.77
2023-02-28T00:28:35.461Z,46.70
2023-02-28T00:31:38.287Z,46.94
2023-02-28T00:34:41.094Z,47.35
2023-02-28T00:37:45.527Z,46.95
2023-02-28T00:40:48.385Z,47.20
2023-02-28T00:43:51.215Z,47.10
2023-02-28T00:46:55.130Z,47.06
2023-02-28T00:50:01.381Z,47.71
2023-02-28T00:53:04.520Z,47.82
2023-02-28T00:56:07.650Z,47.96
2023-02-28T00:59:10.439Z,47.57
2023-02-28T01:02:13.342Z,47.33
2023-02-28T01:05:16.250Z,47.84
2023-02-28T01:08:19.112Z,47.44
2023-02-28T01:11:21.973Z,47.85
2023-02-28T01:14:24.897Z,47.68
2023-02-28T01:17:27.798Z,47.78
2023-02-28T01:20:30.638Z,47.97
2023-02-28T01:23:33.886Z,48.05
2023-02-28T01:26:36.900Z,47.90
2023-02-28T01:29:43.216Z,48.00
2023-02-28T01:32:46.238Z,47.82
2023-02-28T01:35:49.284Z,47.48
2023-02-28T01:38:52.703Z,47.64
2023-02-28T01:41:57.126Z,47.63
2023-02-28T01:45:18.457Z,47.75
2023-02-28T01:48:31.906Z,48.06
2023-02-28T01:51:46.735Z,47.96
2023-02-28T01:54:54.702Z,47.18
2023-02-28T01:58:01.097Z,47.55
2023-02-28T02:01:05.194Z,47.94
2023-02-28T02:04:09.579Z,47.74
2023-02-28T02:07:13.906Z,47.70
2023-02-28T02:10:22.949Z,48.08
2023-02-28T02:13:28.191Z,48.06
2023-02-28T02:16:50.210Z,47.99
2023-02-28T02:20:19.481Z,47.42
2023-02-28T02:23:45.164Z,47.56
2023-02-28T02:26:56.771Z,47.51
2023-02-28T02:30:18.777Z,47.19
2023-02-28T02:33:40.336Z,47.33
2023-02-28T02:37:00.906Z,47.00
2023-02-28T02:40:26.417Z,47.87
2023-02-28T02:43:46.542Z,47.86
2023-02-28T02:46:52.228Z,47.50
2023-02-28T02:49:58.829Z,47.63
2023-02-28T02:53:04.831Z,47.97
2023-02-28T02:56:09.828Z,48.38
2023-02-28T02:59:14.632Z,47.83
2023-02-28T03:02:19.051Z,48.39
2023-02-28T03:05:27.098Z,48.21
2023-02-28T03:08:36.762Z,48.53
2023-02-28T03:11:42.226Z,48.40
2023-02-28T03:15:05.084Z,48.51
2023-02-28T03:18:52.699Z,48.56
2023-02-28T03:22:11.159Z,48.60
2023-02-28T03:25:40.868Z,49.07
2023-02-28T03:28:49.067Z,48.71
2023-02-28T03:32:00.912Z,49.11
2023-02-28T03:35:25.533Z,48.84
2023-02-28T03:38:34.949Z,48.41
2023-02-28T03:41:47.467Z,47.88
2023-02-28T03:45:01.668Z,48.12
2023-02-28T03:48:27.038Z,47.84
2023-02-28T03:51:30.968Z,47.73
2023-02-28T03:54:38.745Z,47.51
2023-02-28T03:58:22.971Z,47.52
2023-02-28T04:01:39.856Z,47.60
2023-02-28T04:04:49.667Z,47.33
2023-02-28T04:07:53.736Z,47.59
2023-02-28T04:11:07.751Z,47.57
2023-02-28T04:14:12.021Z,47.29
2023-02-28T04:17:14.874Z,47.30
2023-02-28T04:20:17.750Z,46.49
2023-02-28T04:23:20.588Z,46.20
2023-02-28T04:26:23.454Z,46.86
2023-02-28T04:29:29.120Z,46.60
2023-02-28T04:32:32.041Z,46.42
2023-02-28T04:35:34.920Z,46.91
2023-02-28T04:38:39.337Z,47.08
2023-02-28T04:41:42.347Z,47.25
2023-02-28T04:44:45.149Z,46.84
2023-02-28T04:47:48.003Z,46.45
2023-02-28T04:50:51.011Z,45.73
2023-02-28T04:53:54.241Z,45.92
2023-02-28T04:56:57.287Z,46.19
2023-02-28T05:00:00.290Z,46.58
2023-02-28T05:03:03.140Z,46.11
2023-02-28T05:06:06.650Z,46.40
2023-02-28T05:09:09.536Z,46.84
2023-02-28T05:12:12.427Z,46.31
2023-02-28T05:15:16.629Z,46.74
2023-02-28T05:18:19.440Z,46.19
2023-02-28T05:21:37.045Z,46.00
2023-02-28T05:24:39.862Z,46.66
2023-02-28T05:27:42.896Z,46.55
2023-02-28T05:30:45.987Z,46.75
2023-02-28T05:33:49.072Z,46.50
2023-02-28T05:36:52.023Z,46.22
2023-02-28T05:39:54.838Z,46.08
2023-02-28T05:42:57.826Z,46.60
2023-02-28T05:46:03.964Z,46.30
2023-02-28T05:49:07.127Z,45.86
2023-02-28T05:52:10.183Z,46.57
2023-02-28T05:55:13.000Z,46.33
2023-02-28T05:58:15.788Z,46.34
2023-02-28T06:01:25.313Z,47.06
2023-02-28T06:04:32.329Z,47.23
2023-02-28T06:07:34.941Z,46.26
2023-02-28T06:10:38.096Z,46.88
2023-02-28T06:13:40.829Z,47.04
2023-02-28T06:16:44.454Z,46.51
2023-02-28T06:19:47.342Z,46.00
2023-02-28T06:22:52.361Z,45.78
2023-02-28T06:25:58.758Z,45.73
2023-02-28T06:29:01.963Z,45.39
2023-02-28T06:32:04.715Z,45.15
2023-02-28T06:35:08.356Z,45.46
2023-02-28T06:38:11.734Z,44.94
2023-02-28T06:41:14.902Z,44.48
2023-02-28T06:44:18.402Z,44.31
2023-02-28T06:47:21.986Z,43.96
2023-02-28T06:50:24.694Z,44.01
2023-02-28T06:53:27.910Z,43.53
2023-02-28T06:56:30.840Z,43.61
2023-02-28T06:59:34.089Z,43.89
2023-02-28T07:02:38.490Z,43.63
2023-02-28T07:05:42.283Z,43.31
2023-02-28T07:08:45.485Z,42.86
2023-02-28T07:11:48.611Z,42.33
2023-02-28T07:14:51.153Z,41.98
2023-02-28T07:17:54.275Z,41.66
2023-02-28T07:20:57.241Z,41.47
2023-02-28T07:24:00.231Z,41.42
2023-02-28T07:27:02.629Z,41.67
2023-02-28T07:30:06.405Z,40.88
2023-02-28T07:33:09.606Z,41.03
2023-02-28T07:36:16.394Z,40.25
2023-02-28T07:39:19.213Z,40.51
2023-02-28T07:42:22.480Z,40.03
2023-02-28T07:45:29.856Z,39.57
2023-02-28T07:48:34.100Z,39.77
2023-02-28T07:51:36.748Z,39.29
2023-02-28T07:54:39.912Z,38.94
2023-02-28T07:57:42.491Z,38.97
2023-02-28T08:00:45.682Z,37.86
2023-02-28T08:03:48.713Z,37.76
2023-02-28T08:06:53.981Z,36.92
2023-02-28T08:09:56.893Z,37.25
2023-02-28T08:12:59.754Z,36.43
2023-02-28T08:16:04.847Z,35.38
2023-02-28T08:19:07.697Z,33.82
2023-02-28T08:22:10.674Z,32.98
2023-02-28T08:25:13.901Z,32.35
2023-02-28T08:28:17.023Z,31.07
2023-02-28T08:31:20.513Z,30.68
2023-02-28T08:34:24.129Z,30.23
2023-02-28T08:37:27.217Z,28.18
2023-02-28T08:40:30.029Z,27.02
2023-02-28T08:43:33.077Z,26.38
2023-02-28T08:46:36.046Z,25.41
2023-02-28T08:49:39.285Z,23.75
2023-02-28T08:52:45.138Z,22.67
2023-02-28T08:55:47.934Z,20.71
2023-02-28T08:58:51.138Z,18.50
2023-02-28T09:01:54.052Z,17.76
2023-02-28T09:04:56.676Z,16.30
2023-02-28T09:07:59.462Z,16.96
2023-02-28T09:11:03.502Z,16.81
2023-02-28T09:14:06.420Z,18.02
2023-02-28T09:17:09.269Z,19.29
2023-02-28T09:20:12.313Z,20.63
2023-02-28T09:23:15.165Z,20.84
2023-02-28T09:26:20.640Z,21.87
2023-02-28T09:29:23.538Z,24.18
2023-02-28T09:32:26.436Z,25.41
2023-02-28T09:35:29.294Z,25.83
2023-02-28T09:38:32.174Z,27.40
2023-02-28T09:41:48.253Z,29.02
2023-02-28T09:44:52.063Z,28.66
2023-02-28T09:48:00.138Z,29.68
2023-02-28T09:51:49.695Z,30.61
2023-02-28T09:54:53.329Z,30.94
2023-02-28T09:57:58.566Z,32.12
2023-02-28T10:01:07.355Z,30.99
2023-02-28T10:04:13.530Z,30.85
2023-02-28T10:07:56.089Z,30.69
2023-02-28T10:11:03.067Z,30.87
2023-02-28T10:14:17.335Z,31.93
2023-02-28T10:17:36.435Z,31.51
2023-02-28T10:20:44.617Z,30.75
2023-02-28T10:23:49.612Z,30.41
2023-02-28T10:26:58.004Z,30.40
2023-02-28T10:30:03.044Z,28.96
2023-02-28T10:33:05.779Z,28.45
2023-02-28T10:36:16.663Z,27.81
2023-02-28T10:39:40.931Z,28.17
2023-02-28T10:42:57.141Z,28.11
2023-02-28T10:46:11.996Z,28.50
2023-02-28T10:49:22.360Z,29.65
2023-02-28T10:52:38.780Z,30.48
2023-02-28T10:55:42.894Z,29.98
2023-02-28T10:58:51.012Z,30.53
2023-02-28T11:01:54.588Z,30.51
2023-02-28T11:04:57.176Z,30.98
2023-02-28T11:08:15.021Z,32.41
2023-02-28T11:11:19.504Z,31.96
2023-02-28T11:14:32.008Z,31.85
2023-02-28T11:17:34.767Z,32.02
2023-02-28T11:20:37.866Z,32.51
2023-02-28T11:23:42.482Z,32.51
2023-02-28T11:26:49.734Z,31.97
2023-02-28T11:29:52.355Z,32.24
2023-02-28T11:32:55.564Z,32.41
2023-02-28T11:36:12.166Z,32.64
2023-02-28T11:39:17.346Z,32.60
2023-02-28T11:42:27.640Z,33.12
2023-02-28T11:45:49.842Z,33.16
2023-02-28T11:49:19.272Z,33.28
2023-02-28T11:52:46.455Z,33.48
2023-02-28T11:56:07.256Z,34.24
2023-02-28T11:59:25.934Z,33.42
2023-02-28T12:03:02.858Z,33.78
2023-02-28T12:06:15.565Z,32.98
2023-02-28T12:09:45.056Z,31.93
2023-02-28T12:12:51.125Z,31.89
2023-02-28T12:15:59.610Z,32.06
2023-02-28T12:19:18.080Z,32.70
2023-02-28T12:22:32.074Z,32.13
2023-02-28T12:25:54.902Z,32.04
2023-02-28T12:29:25.851Z,31.54
2023-02-28T12:32:38.436Z,30.85
2023-02-28T12:35:50.929Z,30.68
2023-02-28T12:39:00.969Z,30.37
2023-02-28T12:42:27.868Z,29.91
2023-02-28T12:45:52.439Z,29.55
2023-02-28T12:48:58.771Z,29.62
2023-02-28T12:52:04.908Z,30.53
2023-02-28T12:55:28.750Z,30.66
2023-02-28T12:58:45.947Z,30.30
2023-02-28T13:02:07.263Z,31.17
2023-02-28T13:05:29.393Z,30.45
2023-02-28T13:09:09.392Z,30.79
2023-02-28T13:12:17.653Z,30.71
2023-02-28T13:15:25.825Z,31.20
2023-02-28T13:18:38.150Z,31.66
2023-02-28T13:21:45.625Z,32.62
2023-02-28T13:24:52.464Z,33.04
2023-02-28T13:27:57.873Z,32.83
2023-02-28T13:31:04.920Z,32.56
2023-02-28T13:34:16.065Z,32.19
2023-02-28T13:37:19.104Z,32.26
2023-02-28T13:40:38.860Z,33.60
2023-02-28T13:44:03.050Z,32.88
2023-02-28T13:47:05.493Z,32.90
2023-02-28T13:50:33.477Z,33.77
2023-02-28T13:53:58.087Z,33.21
2023-02-28T13:57:07.338Z,33.84
2023-02-28T14:00:26.916Z,34.83
2023-02-28T14:03:38.118Z,34.30
2023-02-28T14:06:50.220Z,34.67
2023-02-28T14:10:00.484Z,34.84
2023-02-28T14:13:45.740Z,36.23
2023-02-28T14:16:51.178Z,35.66
2023-02-28T14:19:54.521Z,35.64
2023-02-28T14:23:33.911Z,36.68
2023-02-28T14:26:54.724Z,36.50
2023-02-28T14:30:35.492Z,36.29
2023-02-28T14:34:12.846Z,37.48
2023-02-28T14:37:28.081Z,37.45
2023-02-28T14:40:36.222Z,37.91
2023-02-28T14:43:49.910Z,38.49
2023-02-28T14:47:06.747Z,38.23
2023-02-28T14:50:21.041Z,37.79
2023-02-28T14:53:24.390Z,38.51
2023-02-28T14:56:35.167Z,38.63
2023-02-28T14:59:37.911Z,38.50
2023-02-28T15:02:41.837Z,39.31
2023-02-28T15:05:53.737Z,39.86
2023-02-28T15:09:09.147Z,39.13
2023-02-28T15:12:16.147Z,39.07
2023-02-28T15:15:28.056Z,39.62
2023-02-28T15:18:48.068Z,40.03
2023-02-28T15:21:58.114Z,40.50
2023-02-28T15:25:03.278Z,41.16
2023-02-28T15:28:06.394Z,41.31
2023-02-28T15:31:22.530Z,41.35
2023-02-28T15:34:44.545Z,41.27
2023-02-28T15:37:49.058Z,40.86
2023-02-28T15:40:59.518Z,42.16
2023-02-28T15:44:25.463Z,42.82
2023-02-28T15:47:31.024Z,43.06
2023-02-28T15:50:33.569Z,42.96
2023-02-28T15:53:54.412Z,43.34
2023-02-28T15:57:02.259Z,43.72
2023-02-28T16:00:06.746Z,43.75
2023-02-28T16:03:41.715Z,44.19
2023-02-28T16:06:45.574Z,44.45
2023-02-28T16:09:49.202Z,44.13
2023-02-28T16:12:55.120Z,43.73
2023-02-28T16:15:57.705Z,44.61
2023-02-28T16:19:00.880Z,44.71
2023-02-28T16:22:03.372Z,44.88
2023-02-28T16:25:08.989Z,45.36
2023-02-28T16:28:25.077Z,45.94
2023-02-28T16:31:29.269Z,46.00
2023-02-28T16:34:32.704Z,46.28
2023-02-28T16:37:35.805Z,46.76
2023-02-28T16:40:38.683Z,46.82
2023-02-28T16:43:41.700Z,47.02
2023-02-28T16:46:44.106Z,46.99
2023-02-28T16:49:48.620Z,47.29
2023-02-28T16:52:55.586Z,47.54
2023-02-28T16:55:59.328Z,47.43
2023-02-28T16:59:02.869Z,47.79
2023-02-28T17:02:13.585Z,48.13
2023-02-28T17:05:16.806Z,48.44
2023-02-28T17:08:20.514Z,48.55
2023-02-28T17:11:23.744Z,48.57
2023-02-28T17:14:29.626Z,48.57
2023-02-28T17:17:32.248Z,48.89
2023-02-28T17:20:35.386Z,49.15
2023-02-28T17:23:37.928Z,49.46
2023-02-28T17:26:42.964Z,49.20
2023-02-28T17:29:45.882Z,49.16
2023-02-28T17:32:48.938Z,49.58
2023-02-28T17:35:52.163Z,49.72
2023-02-28T17:38:59.557Z,49.89
2023-02-28T17:42:02.156Z,50.01
2023-02-28T17:45:05.687Z,49.95
2023-02-28T17:48:12.380Z,49.93
2023-02-28T17:51:16.466Z,49.71
2023-02-28T17:54:19.278Z,49.81
2023-02-28T17:57:22.467Z,50.09
2023-02-28T18:00:25.392Z,50.38
2023-02-28T18:03:29.178Z,50.62
2023-02-28T18:06:50.885Z,50.61
2023-02-28T18:09:54.244Z,50.63
2023-02-28T18:12:57.097Z,50.69
2023-02-28T18:16:00.349Z,50.89
2023-02-28T18:19:03.360Z,50.55
2023-02-28T18:22:09.783Z,50.87
2023-02-28T18:25:16.925Z,50.83
2023-02-28T18:28:20.128Z,51.12
2023-02-28T18:31:22.703Z,50.98
2023-02-28T18:34:26.525Z,51.00
2023-02-28T18:37:29.175Z,50.84
2023-02-28T18:40:32.867Z,50.57
2023-02-28T18:43:38.466Z,50.73
2023-02-28T18:46:43.865Z,50.96
2023-02-28T18:49:47.475Z,50.77
2023-02-28T18:52:51.481Z,50.83
2023-02-28T18:55:54.101Z,50.57
2023-02-28T18:58:57.423Z,50.97
2023-02-28T19:02:00.093Z,50.93
2023-02-28T19:05:03.286Z,51.05
2023-02-28T19:08:05.928Z,51.12
2023-02-28T19:11:11.699Z,51.07
2023-02-28T19:14:14.256Z,51.21
2023-02-28T19:17:17.430Z,50.97
2023-02-28T19:20:20.050Z,51.10
2023-02-28T19:23:23.260Z,51.06
2023-02-28T19:26:26.867Z,51.08
2023-02-28T19:29:29.995Z,51.21
2023-02-28T19:32:32.640Z,51.26
2023-02-28T19:35:35.946Z,51.17
2023-02-28T19:38:39.775Z,51.12
2023-02-28T19:41:42.908Z,51.06
2023-02-28T19:44:45.941Z,51.18
2023-02-28T19:47:49.021Z,51.42
2023-02-28T19:50:56.141Z,51.56
2023-02-28T19:53:59.527Z,51.43
2023-02-28T19:57:02.231Z,51.30
2023-02-28T20:00:05.996Z,50.94
2023-02-28T20:03:15.482Z,51.14
2023-02-28T20:06:18.809Z,51.41
2023-02-28T20:09:21.413Z,51.87
2023-02-28T20:12:25.052Z,51.80
2023-02-28T20:15:28.111Z,52.00
2023-02-28T20:18:31.200Z,51.91
2023-02-28T20:21:34.074Z,51.96
2023-02-28T20:24:37.877Z,51.84
2023-02-28T20:27:40.383Z,51.67
2023-02-28T20:30:44.042Z,51.82
2023-02-28T20:33:48.927Z,51.95
2023-02-28T20:36:52.095Z,51.95
2023-02-28T20:39:56.939Z,51.89
2023-02-28T20:43:00.174Z,51.88
2023-02-28T20:46:03.085Z,51.92
2023-02-28T20:49:06.102Z,51.96
2023-02-28T20:52:08.574Z,51.68
2023-02-28T20:55:12.596Z,51.62
2023-02-28T20:58:14.982Z,51.67
2023-02-28T21:01:25.919Z,51.62
2023-02-28T21:04:28.977Z,51.81
2023-02-28T21:07:32.141Z,51.70
2023-02-28T21:10:34.697Z,51.62
2023-02-28T21:13:38.690Z,51.36
2023-02-28T21:16:41.457Z,50.70
2023-02-28T21:19:44.509Z,51.11
2023-02-28T21:22:47.214Z,51.22
2023-02-28T21:25:50.405Z,51.55
2023-02-28T21:28:57.925Z,51.28
2023-02-28T21:32:02.067Z,52.01
2023-02-28T21:35:04.607Z,51.27
2023-02-28T21:38:07.595Z,51.15
2023-02-28T21:41:14.457Z,51.01
2023-02-28T21:44:22.533Z,51.49
2023-02-28T21:47:25.173Z,51.26
2023-02-28T21:50:28.247Z,51.63
2023-02-28T21:53:32.355Z,51.87
2023-02-28T21:56:35.897Z,51.62
2023-02-28T21:59:38.454Z,51.77
2023-02-28T22:02:41.795Z,51.88
2023-02-28T22:05:44.705Z,51.37
2023-02-28T22:08:53.889Z,51.47
2023-02-28T22:11:57.684Z,51.90
2023-02-28T22:15:00.515Z,51.77
2023-02-28T22:18:03.944Z,51.76
2023-02-28T22:21:08.245Z,51.63
2023-02-28T22:24:11.415Z,52.03
2023-02-28T22:27:14.253Z,51.88
2023-02-28T22:30:17.542Z,51.97
2023-02-28T22:33:20.366Z,51.18
2023-02-28T22:36:23.636Z,51.09
2023-02-28T22:39:26.436Z,51.23
2023-02-28T22:42:33.005Z,51.59
2023-02-28T22:45:40.063Z,51.62
2023-02-28T22:48:42.884Z,51.73
2023-02-28T22:51:45.648Z,51.33
2023-02-28T22:54:51.432Z,51.75
2023-02-28T22:57:54.278Z,51.78
2023-02-28T23:00:57.889Z,51.46
2023-02-28T23:04:01.606Z,51.27
2023-02-28T23:07:07.070Z,51.48
2023-02-28T23:10:15.428Z,50.96
2023-02-28T23:13:19.693Z,50.96
2023-02-28T23:16:22.477Z,50.86
2023-02-28T23:19:30.721Z,50.66
2023-02-28T23:22:33.781Z,51.00
2023-02-28T23:25:40.440Z,51.23
2023-02-28T23:28:43.295Z,51.06
2023-02-28T23:31:46.677Z,51.19
2023-02-28T23:34:49.534Z,51.32
2023-02-28T23:37:52.645Z,51.25
2023-02-28T23:40:55.546Z,51.47
2023-02-28T23:43:58.345Z,51.51
2023-02-28T23:47:01.224Z,52.02
2023-02-28T23:50:05.078Z,52.33
2023-02-28T23:53:08.536Z,52.48
2023-02-28T23:56:14.734Z,52.05
2023-02-28T23:59:17.463Z,52.18
